Time;durP1;ratioP1;P1;durP2;ratioP2;P2;SDS_P1;SDS_P2;PMS_P1;PMS_P2;Temp;Humidity;BMP_temperature;BMP_pressure;BME280_temperature;BME280_humidity;BME280_pressure;Samples;Min_cycle;Max_cycle;Signal;HPM_P1;HPM_P2
2022/07/01 00:00:56;;;;;;;3.60;1.67;;;19.40;54.60;;;;;;5051012;28;46572;-61
2022/07/01 00:03:22;;;;;;;5.63;1.80;;;19.40;54.60;;;;;;5054632;28;46557;-60
2022/07/01 00:05:48;;;;;;;5.93;1.63;;;19.40;54.20;;;;;;5053477;28;46723;-62
2022/07/01 00:08:13;;;;;;;9.20;1.87;;;19.40;54.10;;;;;;5049921;28;46500;-61
2022/07/01 00:10:39;;;;;;;2.40;1.10;;;19.40;53.80;;;;;;5049454;28;46406;-61
2022/07/01 00:13:06;;;;;;;3.73;1.33;;;19.40;55.00;;;;;;5048336;28;46432;-60
2022/07/01 00:15:32;;;;;;;5.50;1.30;;;19.30;53.90;;;;;;5049665;28;46520;-60
2022/07/01 00:17:57;;;;;;;5.10;1.20;;;19.30;54.10;;;;;;5048429;28;46347;-60
2022/07/01 00:20:23;;;;;;;5.80;1.40;;;19.20;54.10;;;;;;5049193;28;45843;-61
2022/07/01 00:22:48;;;;;;;3.07;1.17;;;19.20;54.50;;;;;;5050482;28;46346;-61
2022/07/01 00:25:14;;;;;;;7.27;1.10;;;19.10;54.50;;;;;;5049122;28;46417;-60
2022/07/01 00:27:41;;;;;;;4.43;1.10;;;19.00;55.00;;;;;;5049811;28;46374;-61
2022/07/01 00:30:10;;;;;;;4.70;1.10;;;19.00;55.40;;;;;;5048857;28;46381;-61
2022/07/01 00:32:36;;;;;;;2.70;1.10;;;18.90;55.80;;;;;;5048933;28;46486;-61
2022/07/01 00:35:02;;;;;;;2.40;1.20;;;18.80;56.40;;;;;;5048665;28;46557;-60
2022/07/01 00:37:28;;;;;;;2.57;1.00;;;18.80;56.70;;;;;;5048729;28;46540;-60
2022/07/01 00:39:53;;;;;;;2.93;1.30;;;18.70;56.80;;;;;;5047664;28;46590;-60
2022/07/01 00:42:19;;;;;;;8.37;1.37;;;18.70;57.10;;;;;;5046896;28;46992;-61
2022/07/01 00:44:45;;;;;;;2.63;1.03;;;18.60;57.30;;;;;;5050141;28;46580;-62
2022/07/01 00:47:12;;;;;;;2.63;1.30;;;18.60;58.60;;;;;;5049659;28;46357;-61
2022/07/01 00:49:39;;;;;;;3.00;1.10;;;18.50;59.30;;;;;;5048318;28;46319;-61
2022/07/01 00:52:07;;;;;;;4.00;1.10;;;18.50;59.50;;;;;;5045868;28;46660;-62
2022/07/01 00:54:36;;;;;;;4.73;1.30;;;18.40;59.40;;;;;;5045609;28;46501;-61
2022/07/01 00:57:10;;;;;;;2.90;1.20;;;18.40;59.40;;;;;;5048392;28;46453;-62
2022/07/01 00:59:39;;;;;;;3.70;1.60;;;18.30;60.00;;;;;;5046072;28;46414;-60
2022/07/01 01:02:07;;;;;;;5.33;1.20;;;18.30;60.80;;;;;;5045887;28;46101;-62
2022/07/01 01:04:33;;;;;;;5.30;1.33;;;18.20;61.60;;;;;;5047255;28;46486;-62
2022/07/01 01:07:00;;;;;;;2.63;1.10;;;18.20;62.50;;;;;;5047932;28;46485;-62
2022/07/01 01:09:26;;;;;;;4.33;1.30;;;18.20;62.40;;;;;;5047914;28;46435;-62
2022/07/01 01:11:52;;;;;;;3.07;1.40;;;18.20;62.00;;;;;;5050862;28;47067;-62
2022/07/01 01:14:19;;;;;;;3.50;1.50;;;18.20;61.80;;;;;;5049189;28;45940;-62
2022/07/01 01:16:44;;;;;;;4.60;1.27;;;18.20;61.90;;;;;;5050700;28;46363;-58
2022/07/01 01:19:10;;;;;;;2.70;1.40;;;18.20;61.80;;;;;;5048749;28;46828;-60
2022/07/01 01:21:35;;;;;;;2.73;1.30;;;18.20;62.00;;;;;;5049166;28;46470;-62
2022/07/01 01:24:02;;;;;;;4.33;1.77;;;18.20;62.00;;;;;;5048303;28;46461;-62
2022/07/01 01:26:28;;;;;;;2.77;1.43;;;18.10;62.20;;;;;;5047886;28;46490;-62
2022/07/01 01:28:53;;;;;;;5.00;1.70;;;18.10;62.40;;;;;;5049243;28;46580;-61
2022/07/01 01:31:29;;;;;;;3.90;1.43;;;18.10;62.90;;;;;;5048564;28;46053;-61
2022/07/01 01:33:54;;;;;;;3.60;1.60;;;18.10;62.60;;;;;;5048556;28;46500;-62
2022/07/01 01:36:20;;;;;;;9.20;1.70;;;18.10;62.50;;;;;;5049224;28;46445;-62
2022/07/01 01:38:46;;;;;;;4.53;1.60;;;18.00;62.80;;;;;;5047990;28;45961;-63
2022/07/01 01:41:11;;;;;;;4.30;1.33;;;17.90;63.00;;;;;;5049915;28;46586;-61
2022/07/01 01:43:37;;;;;;;7.73;1.60;;;18.00;63.70;;;;;;5046921;28;46405;-61
2022/07/01 01:46:03;;;;;;;5.57;1.83;;;17.90;63.60;;;;;;5047881;28;46436;-62
2022/07/01 01:48:30;;;;;;;3.67;1.80;;;17.90;63.90;;;;;;5047461;28;46907;-61
2022/07/01 01:50:56;;;;;;;2.43;1.33;;;17.90;64.10;;;;;;5047543;28;46564;-61
2022/07/01 01:53:21;;;;;;;3.57;1.77;;;17.80;64.20;;;;;;5045953;28;46600;-62
2022/07/01 01:55:47;;;;;;;3.67;1.50;;;17.80;64.40;;;;;;5048788;28;46444;-61
2022/07/01 01:58:13;;;;;;;4.13;1.87;;;17.80;64.60;;;;;;5047955;28;46377;-62
2022/07/01 02:00:38;;;;;;;3.83;1.90;;;17.70;64.50;;;;;;5047500;28;46421;-62
2022/07/01 02:03:04;;;;;;;4.50;1.90;;;17.70;64.60;;;;;;5048132;28;46212;-61
2022/07/01 02:05:30;;;;;;;4.60;1.97;;;17.70;64.70;;;;;;5047577;28;46674;-62
2022/07/01 02:07:56;;;;;;;3.43;1.50;;;17.70;64.70;;;;;;5047303;28;46480;-63
2022/07/01 02:10:22;;;;;;;3.43;1.80;;;17.80;64.80;;;;;;5045782;28;47307;-62
2022/07/01 02:12:47;;;;;;;5.60;2.20;;;17.80;64.90;;;;;;5047400;28;46344;-61
2022/07/01 02:15:13;;;;;;;3.40;1.93;;;17.80;64.80;;;;;;5046196;28;46370;-61
2022/07/01 02:17:39;;;;;;;6.33;1.80;;;17.80;64.80;;;;;;5048145;28;46450;-62
2022/07/01 02:20:05;;;;;;;5.40;1.80;;;17.80;64.80;;;;;;5045339;28;46862;-61
2022/07/01 02:22:30;;;;;;;4.30;1.70;;;17.80;64.80;;;;;;5046245;28;45809;-61
2022/07/01 02:24:56;;;;;;;4.40;2.07;;;17.80;64.90;;;;;;5046499;28;46529;-62
2022/07/01 02:27:21;;;;;;;5.30;1.80;;;17.80;64.80;;;;;;5046353;28;46664;-62
2022/07/01 02:29:47;;;;;;;4.00;1.87;;;17.80;64.90;;;;;;5045894;28;46416;-63
2022/07/01 02:32:13;;;;;;;3.83;1.87;;;17.80;65.00;;;;;;5047327;28;46453;-61
2022/07/01 02:34:38;;;;;;;3.60;1.77;;;17.80;65.20;;;;;;5048937;28;46348;-62
2022/07/01 02:37:04;;;;;;;2.93;1.90;;;17.80;65.20;;;;;;5049612;28;46456;-61
2022/07/01 02:39:29;;;;;;;3.47;1.77;;;17.90;65.30;;;;;;5048635;28;46328;-61
2022/07/01 02:44:39;;;;;;;4.70;1.83;;;17.80;65.50;;;;;;5051546;28;46407;-61
2022/07/01 02:47:05;;;;;;;3.23;1.93;;;17.90;65.40;;;;;;5048465;28;46670;-62
2022/07/01 02:49:31;;;;;;;4.40;1.70;;;17.90;65.30;;;;;;5047729;28;47260;-62
2022/07/01 02:51:56;;;;;;;4.80;1.90;;;17.90;65.00;;;;;;5047863;28;46382;-62
2022/07/01 02:54:22;;;;;;;3.20;2.00;;;18.00;65.30;;;;;;5052991;28;45854;-62
2022/07/01 02:56:48;;;;;;;3.87;2.00;;;18.00;65.20;;;;;;5052427;28;46351;-61
2022/07/01 02:59:13;;;;;;;3.90;1.90;;;18.00;65.50;;;;;;5046385;28;47241;-62
2022/07/01 03:01:39;;;;;;;6.60;1.90;;;18.00;65.50;;;;;;5047930;28;46360;-62
2022/07/01 03:04:04;;;;;;;4.80;1.90;;;18.00;65.40;;;;;;5046151;28;46455;-61
2022/07/01 03:06:30;;;;;;;6.50;1.87;;;18.00;65.50;;;;;;5047845;28;46644;-62
2022/07/01 03:08:57;;;;;;;6.67;2.03;;;18.00;65.90;;;;;;5045862;28;46948;-62
2022/07/01 03:11:23;;;;;;;10.70;2.13;;;17.90;67.00;;;;;;5044830;28;46365;-61
2022/07/01 03:13:49;;;;;;;3.83;2.30;;;17.90;67.60;;;;;;5048160;28;46335;-63
2022/07/01 03:16:14;;;;;;;4.03;2.27;;;17.80;67.80;;;;;;5045396;28;46510;-62
2022/07/01 03:18:40;;;;;;;14.43;2.40;;;17.80;68.00;;;;;;5046484;28;46426;-61
2022/07/01 03:21:06;;;;;;;3.70;2.20;;;17.70;67.70;;;;;;5047839;28;46522;-61
2022/07/01 03:23:31;;;;;;;5.70;2.00;;;17.70;67.70;;;;;;5049022;28;46421;-61
2022/07/01 03:25:57;;;;;;;4.10;2.10;;;17.80;67.60;;;;;;5051903;28;46271;-60
2022/07/01 03:28:23;;;;;;;7.73;2.20;;;17.90;67.60;;;;;;5048646;28;46373;-60
2022/07/01 03:30:48;;;;;;;11.07;2.70;;;17.90;67.60;;;;;;5052499;28;46339;-61
2022/07/01 03:33:14;;;;;;;7.10;2.93;;;17.90;67.60;;;;;;5050829;28;46568;-62
2022/07/01 03:35:40;;;;;;;7.93;2.70;;;17.90;67.50;;;;;;5050372;28;46448;-62
2022/07/01 03:38:07;;;;;;;7.97;2.93;;;17.90;67.50;;;;;;5051182;28;46177;-61
2022/07/01 03:40:33;;;;;;;5.17;2.07;;;18.00;67.60;;;;;;5049878;28;46553;-62
2022/07/01 03:42:59;;;;;;;15.53;2.50;;;18.00;67.50;;;;;;5051976;28;46672;-61
2022/07/01 03:45:24;;;;;;;12.70;2.93;;;18.10;67.50;;;;;;5052101;28;46452;-62
2022/07/01 03:47:51;;;;;;;8.10;2.07;;;18.10;67.40;;;;;;5050593;28;46958;-61
2022/07/01 03:50:20;;;;;;;4.13;1.90;;;18.20;67.40;;;;;;5051112;28;46310;-62
2022/07/01 03:52:45;;;;;;;4.73;2.70;;;18.20;67.10;;;;;;5049758;28;47119;-61
2022/07/01 03:55:12;;;;;;;4.10;2.10;;;18.30;67.10;;;;;;5049115;28;46331;-61
2022/07/01 03:57:38;;;;;;;4.47;2.20;;;18.30;67.10;;;;;;5051654;28;46429;-61
2022/07/01 04:00:06;;;;;;;5.10;2.30;;;18.30;67.00;;;;;;5049758;28;46580;-62
2022/07/01 04:02:31;;;;;;;5.80;2.53;;;18.30;67.00;;;;;;5049408;28;45866;-61
2022/07/01 04:04:57;;;;;;;7.43;2.60;;;18.30;66.90;;;;;;5050950;28;46415;-61
2022/07/01 04:07:23;;;;;;;6.20;2.30;;;18.30;66.80;;;;;;5066552;28;48334;-62
2022/07/01 04:09:51;;;;;;;4.03;2.20;;;18.30;67.00;;;;;;5050023;28;46402;-61
2022/07/01 04:12:16;;;;;;;5.40;2.37;;;18.30;67.40;;;;;;5050754;28;46472;-61
2022/07/01 04:14:42;;;;;;;7.60;2.37;;;18.20;67.80;;;;;;5051480;28;46607;-62
2022/07/01 04:17:07;;;;;;;12.40;2.50;;;18.10;68.20;;;;;;5051672;28;48037;-61
2022/07/01 04:19:34;;;;;;;11.73;2.87;;;18.00;68.50;;;;;;5050451;28;46634;-60
2022/07/01 04:24:44;;;;;;;6.60;2.50;;;18.00;68.60;;;;;;5049498;28;46320;-62
2022/07/01 04:27:09;;;;;;;8.23;2.63;;;18.00;69.00;;;;;;5050899;28;47020;-62
2022/07/01 04:29:35;;;;;;;5.20;2.50;;;18.00;69.00;;;;;;5050458;28;46381;-62
2022/07/01 04:32:01;;;;;;;5.57;2.77;;;18.10;68.90;;;;;;5050754;28;46444;-62
2022/07/01 04:34:26;;;;;;;10.93;3.00;;;18.20;68.50;;;;;;5049528;28;46352;-62
2022/07/01 04:36:52;;;;;;;4.23;2.30;;;18.30;68.20;;;;;;5050371;28;46016;-62
2022/07/01 04:39:18;;;;;;;7.60;2.67;;;18.40;67.80;;;;;;5048897;28;45806;-62
2022/07/01 04:41:58;;;;;;;5.97;2.73;;;18.50;67.60;;;;;;5064366;28;46655;-62
2022/07/01 04:44:25;;;;;;;11.83;3.57;;;18.50;67.80;;;;;;5050319;28;46461;-61
2022/07/01 04:46:50;;;;;;;7.17;3.07;;;18.50;67.80;;;;;;5048436;28;46378;-63
2022/07/01 04:49:16;;;;;;;10.93;2.90;;;18.60;67.90;;;;;;5047771;28;45865;-63
2022/07/01 04:51:41;;;;;;;9.27;2.80;;;18.50;68.00;;;;;;5050189;28;46400;-61
2022/07/01 04:54:08;;;;;;;9.67;3.27;;;18.50;68.40;;;;;;5049212;28;46385;-61
2022/07/01 04:56:35;;;;;;;11.03;3.40;;;18.50;68.30;;;;;;5064622;28;46759;-61
2022/07/01 04:59:01;;;;;;;9.23;3.00;;;18.50;68.40;;;;;;5049988;28;45853;-62
2022/07/01 05:01:28;;;;;;;5.80;2.83;;;18.60;68.20;;;;;;5050088;28;46470;-62
2022/07/01 05:03:54;;;;;;;8.00;2.80;;;18.60;68.10;;;;;;5065229;28;46432;-61
2022/07/01 05:06:20;;;;;;;9.57;2.40;;;18.70;68.00;;;;;;5049638;28;47296;-61
2022/07/01 05:08:45;;;;;;;7.43;2.43;;;18.70;67.90;;;;;;5048952;28;46280;-62
2022/07/01 05:11:11;;;;;;;6.30;3.30;;;18.80;67.80;;;;;;5050432;28;46366;-61
2022/07/01 05:13:37;;;;;;;6.50;2.33;;;18.90;67.60;;;;;;5050180;28;45974;-61
2022/07/01 05:16:03;;;;;;;5.80;2.30;;;19.00;67.70;;;;;;5049697;28;46052;-61
2022/07/01 05:23:57;;;;;;;5.47;2.77;;;19.20;67.60;;;;;;5049794;28;46486;-61
2022/07/01 05:26:25;;;;;;;5.00;2.77;;;19.40;67.40;;;;;;5049991;28;47550;-62
2022/07/01 05:28:52;;;;;;;6.47;2.87;;;19.40;67.30;;;;;;5057570;28;46414;-61
2022/07/01 05:31:18;;;;;;;3.37;2.17;;;19.60;67.00;;;;;;5050997;28;46457;-61
2022/07/01 05:33:44;;;;;;;3.50;2.27;;;19.70;67.00;;;;;;5049934;28;47522;-62
2022/07/01 05:36:10;;;;;;;7.90;1.90;;;19.80;67.10;;;;;;5048703;28;46411;-61
2022/07/01 05:38:36;;;;;;;4.57;2.00;;;20.90;65.60;;;;;;5047847;28;46410;-61
2022/07/01 05:41:02;;;;;;;4.13;2.00;;;21.10;64.20;;;;;;5048962;28;46437;-61
2022/07/01 05:43:29;;;;;;;5.47;2.20;;;20.90;64.60;;;;;;5048491;28;46539;-61
2022/07/01 05:45:54;;;;;;;3.10;1.97;;;20.80;64.40;;;;;;5048322;28;46664;-61
2022/07/01 05:48:20;;;;;;;3.33;1.93;;;20.50;64.20;;;;;;5049119;28;46421;-61
2022/07/01 05:50:47;;;;;;;3.53;1.73;;;19.60;63.30;;;;;;5047915;28;46472;-61
2022/07/01 05:53:12;;;;;;;2.87;1.53;;;19.00;64.70;;;;;;5048833;28;46434;-62
2022/07/01 05:55:38;;;;;;;6.00;1.50;;;18.70;65.60;;;;;;5047874;28;46483;-61
2022/07/01 05:58:06;;;;;;;4.70;1.53;;;18.40;65.80;;;;;;5047618;28;45803;-61
2022/07/01 06:00:31;;;;;;;5.60;1.77;;;18.10;65.50;;;;;;5047988;28;46463;-61
2022/07/01 06:02:57;;;;;;;3.00;1.47;;;18.00;65.20;;;;;;5046152;28;46440;-60
2022/07/01 06:05:23;;;;;;;3.10;1.80;;;17.80;64.90;;;;;;5048637;28;46329;-60
2022/07/01 06:07:48;;;;;;;2.60;1.57;;;17.60;65.20;;;;;;5046300;28;46392;-60
2022/07/01 06:10:14;;;;;;;5.17;2.07;;;17.30;65.60;;;;;;5046608;28;46448;-60
2022/07/01 06:12:40;;;;;;;3.00;1.50;;;17.10;65.60;;;;;;5046937;28;46525;-62
2022/07/01 06:15:11;;;;;;;2.53;1.50;;;17.00;65.40;;;;;;5048075;28;46112;-62
2022/07/01 06:17:38;;;;;;;3.67;1.70;;;16.90;65.40;;;;;;5046423;28;45829;-64
2022/07/01 06:20:04;;;;;;;2.83;1.50;;;16.80;65.40;;;;;;5046913;28;45979;-62
2022/07/01 06:22:30;;;;;;;3.27;1.30;;;16.60;65.70;;;;;;5047308;28;46464;-61
2022/07/01 06:24:56;;;;;;;3.17;1.70;;;16.30;66.60;;;;;;5047440;28;46392;-63
2022/07/01 06:27:23;;;;;;;2.53;1.27;;;16.20;67.30;;;;;;5062488;28;46490;-62
2022/07/01 06:29:50;;;;;;;4.17;1.33;;;16.10;67.40;;;;;;5039728;28;46765;-62
2022/07/01 06:32:15;;;;;;;3.43;1.10;;;15.90;67.50;;;;;;5044652;28;47542;-60
2022/07/01 06:34:41;;;;;;;2.30;1.10;;;15.90;67.30;;;;;;5041693;28;46327;-60
2022/07/01 06:37:07;;;;;;;5.40;1.00;;;15.80;67.30;;;;;;5042409;28;46579;-62
2022/07/01 06:39:33;;;;;;;2.50;1.10;;;15.50;67.80;;;;;;5042444;28;46445;-61
2022/07/01 06:41:58;;;;;;;4.40;1.20;;;15.40;68.10;;;;;;5045944;28;46806;-61
2022/07/01 06:44:24;;;;;;;2.20;1.07;;;15.40;68.00;;;;;;5044106;28;46539;-60
2022/07/01 06:46:50;;;;;;;3.70;1.60;;;15.20;68.30;;;;;;5045279;28;46521;-61
2022/07/01 06:49:15;;;;;;;2.83;1.20;;;15.10;69.10;;;;;;5046012;28;46948;-62
2022/07/01 06:51:41;;;;;;;3.43;1.70;;;15.30;68.40;;;;;;5047746;28;46413;-61
2022/07/01 06:54:07;;;;;;;3.70;1.07;;;15.30;68.10;;;;;;5043595;28;46494;-61
2022/07/01 06:56:32;;;;;;;6.90;1.30;;;15.20;67.60;;;;;;5046396;28;46488;-61
2022/07/01 06:58:58;;;;;;;3.13;1.40;;;15.20;67.60;;;;;;5049922;28;46361;-61
2022/07/01 07:01:24;;;;;;;5.30;1.17;;;15.10;67.70;;;;;;5049699;28;46608;-61
2022/07/01 07:03:50;;;;;;;2.20;1.00;;;15.10;67.70;;;;;;5046971;28;46201;-61
2022/07/01 07:06:16;;;;;;;3.07;1.10;;;15.20;67.60;;;;;;5050639;28;46402;-62
2022/07/01 07:08:42;;;;;;;8.40;1.60;;;15.30;67.20;;;;;;5048646;28;46281;-61
2022/07/01 07:11:08;;;;;;;3.67;1.23;;;15.30;67.00;;;;;;5050484;28;45849;-60
2022/07/01 07:13:35;;;;;;;2.73;1.30;;;15.30;66.60;;;;;;5046640;28;46665;-61
2022/07/01 07:16:01;;;;;;;2.77;1.03;;;15.40;66.30;;;;;;5048545;28;46487;-61
2022/07/01 07:18:27;;;;;;;3.50;1.60;;;15.20;65.80;;;;;;5046587;28;45772;-60
2022/07/01 07:20:52;;;;;;;2.50;1.30;;;14.90;67.60;;;;;;5048756;28;46505;-60
2022/07/01 07:23:18;;;;;;;2.90;1.50;;;14.90;66.90;;;;;;5048600;28;46457;-61
2022/07/01 07:25:44;;;;;;;4.50;1.50;;;15.10;66.70;;;;;;5046420;28;46459;-61
2022/07/01 07:28:10;;;;;;;4.73;1.40;;;15.20;66.40;;;;;;5048504;28;46319;-61
2022/07/01 07:30:35;;;;;;;7.30;1.50;;;15.30;66.40;;;;;;5047770;28;46351;-61
2022/07/01 07:33:01;;;;;;;2.40;1.43;;;15.40;65.80;;;;;;5049754;28;46317;-61
2022/07/01 07:35:27;;;;;;;2.67;1.30;;;15.50;65.40;;;;;;5046010;28;46430;-61
2022/07/01 07:37:52;;;;;;;2.40;1.40;;;15.40;65.60;;;;;;5049326;28;46405;-61
2022/07/01 07:40:18;;;;;;;4.40;1.60;;;15.40;65.70;;;;;;5048206;28;46681;-61
2022/07/01 07:42:46;;;;;;;2.80;1.40;;;15.40;65.60;;;;;;5049644;28;46903;-61
2022/07/01 07:45:13;;;;;;;4.57;1.57;;;15.40;65.60;;;;;;5045487;28;46942;-61
2022/07/01 07:47:45;;;;;;;3.37;2.00;;;15.50;65.70;;;;;;5049490;28;45762;-62
2022/07/01 07:50:12;;;;;;;2.57;1.37;;;15.50;65.80;;;;;;5045972;28;46886;-61
2022/07/01 07:52:38;;;;;;;3.00;1.40;;;15.50;65.50;;;;;;5047088;28;48767;-61
2022/07/01 07:55:06;;;;;;;2.37;1.50;;;15.70;65.20;;;;;;5045667;28;46302;-61
2022/07/01 07:57:33;;;;;;;3.43;1.40;;;15.80;65.20;;;;;;5048433;28;47033;-61
2022/07/01 07:59:59;;;;;;;3.50;1.53;;;15.70;65.30;;;;;;5049054;28;46739;-60
2022/07/01 08:02:25;;;;;;;4.73;1.60;;;15.90;64.90;;;;;;5047782;28;46493;-60
2022/07/01 08:04:50;;;;;;;3.17;1.53;;;16.10;64.40;;;;;;5047682;28;46432;-61
2022/07/01 08:07:16;;;;;;;6.80;2.10;;;16.30;64.00;;;;;;5050040;28;46477;-60
2022/07/01 08:09:46;;;;;;;12.17;2.87;;;16.00;64.60;;;;;;5050630;28;46427;-60
2022/07/01 08:12:12;;;;;;;4.10;1.53;;;16.00;64.60;;;;;;5047987;28;46454;-61
2022/07/01 08:14:37;;;;;;;4.60;1.40;;;16.00;64.60;;;;;;5044709;28;46639;-62
2022/07/01 08:17:03;;;;;;;3.90;1.37;;;15.80;65.00;;;;;;5054043;28;46398;-61
2022/07/01 08:19:29;;;;;;;10.73;1.43;;;15.70;65.50;;;;;;5047866;28;46465;-63
2022/07/01 08:21:55;;;;;;;6.60;1.57;;;15.60;65.70;;;;;;5047662;28;46486;-61
2022/07/01 08:24:20;;;;;;;2.47;1.40;;;15.50;65.90;;;;;;5044265;28;46509;-60
2022/07/01 08:26:46;;;;;;;3.07;1.50;;;15.60;66.20;;;;;;5048569;28;47027;-61
2022/07/01 08:29:12;;;;;;;2.70;1.60;;;15.70;65.90;;;;;;5048803;28;46506;-60
2022/07/01 08:31:37;;;;;;;4.97;1.80;;;15.90;65.20;;;;;;5047391;28;46372;-61
2022/07/01 08:34:03;;;;;;;3.90;1.20;;;16.30;64.10;;;;;;5047892;28;46452;-60
2022/07/01 08:36:29;;;;;;;3.83;1.70;;;16.50;63.70;;;;;;5048616;28;46354;-62
2022/07/01 08:38:54;;;;;;;3.20;1.43;;;16.50;63.30;;;;;;5048918;28;46393;-60
2022/07/01 08:41:20;;;;;;;3.43;1.60;;;16.70;63.00;;;;;;5048684;28;46294;-61
2022/07/01 08:43:46;;;;;;;4.20;1.60;;;16.80;62.70;;;;;;5047203;28;46338;-61
2022/07/01 08:46:12;;;;;;;2.87;1.40;;;16.80;62.80;;;;;;5049520;28;46454;-61
2022/07/01 08:48:42;;;;;;;2.30;1.33;;;16.90;62.60;;;;;;5049208;28;46303;-61
2022/07/01 08:51:08;;;;;;;2.43;1.47;;;16.90;62.40;;;;;;5048292;28;46581;-61
2022/07/01 08:53:34;;;;;;;2.60;1.40;;;16.90;62.40;;;;;;5048598;28;46547;-60
2022/07/01 08:58:45;;;;;;;5.23;1.63;;;17.10;62.20;;;;;;5049900;28;46387;-61
2022/07/01 09:01:25;;;;;;;3.87;1.60;;;17.30;61.80;;;;;;5047767;28;46983;-60
2022/07/01 09:03:53;;;;;;;3.10;1.47;;;17.40;61.60;;;;;;5042723;28;46453;-60
2022/07/01 09:06:29;;;;;;;2.10;1.17;;;17.30;61.60;;;;;;5048217;28;46441;-62
2022/07/01 09:09:09;;;;;;;2.50;1.20;;;17.30;61.90;;;;;;5048642;28;46330;-61
2022/07/01 09:11:35;;;;;;;2.33;1.10;;;17.30;61.90;;;;;;5050998;28;47243;-63
2022/07/01 09:14:12;;;;;;;2.60;1.00;;;17.40;61.30;;;;;;5043525;28;46461;-62
2022/07/01 09:16:50;;;;;;;2.10;1.10;;;17.70;60.10;;;;;;5048251;28;46411;-63
2022/07/01 09:19:18;;;;;;;2.77;1.20;;;17.70;59.80;;;;;;5046795;28;46459;-62
2022/07/01 09:21:56;;;;;;;2.20;1.23;;;17.80;59.30;;;;;;5049042;28;47060;-60
2022/07/01 09:24:28;;;;;;;2.23;1.00;;;17.90;59.00;;;;;;5045832;28;46468;-59
2022/07/01 09:26:59;;;;;;;2.17;1.17;;;17.90;59.10;;;;;;5048204;28;46443;-61
2022/07/01 09:29:33;;;;;;;2.33;1.33;;;17.90;58.90;;;;;;5047088;28;46476;-61
2022/07/01 09:32:05;;;;;;;2.23;1.00;;;18.00;59.10;;;;;;5049825;28;46644;-61
2022/07/01 09:34:48;;;;;;;2.03;1.03;;;18.00;58.60;;;;;;5042714;28;46439;-62
2022/07/01 09:37:16;;;;;;;2.27;1.10;;;18.10;58.50;;;;;;5047073;28;46444;-62
2022/07/01 09:39:47;;;;;;;2.80;1.30;;;18.10;58.40;;;;;;5048274;28;46209;-62
2022/07/01 09:42:14;;;;;;;2.13;1.20;;;18.10;58.20;;;;;;5047346;28;46593;-62
2022/07/01 09:44:56;;;;;;;2.13;1.10;;;18.10;58.00;;;;;;5042873;28;46373;-61
2022/07/01 09:47:26;;;;;;;2.20;1.07;;;18.00;58.10;;;;;;5047466;28;46386;-61
2022/07/01 09:49:54;;;;;;;2.60;1.47;;;17.80;58.40;;;;;;5047091;28;46373;-61
2022/07/01 09:52:20;;;;;;;2.20;1.27;;;17.90;57.90;;;;;;5048190;28;46649;-61
2022/07/01 09:54:47;;;;;;;2.87;1.30;;;17.70;58.30;;;;;;5043150;28;46464;-61
2022/07/01 09:57:14;;;;;;;2.83;1.40;;;17.50;58.60;;;;;;5047585;28;45772;-62
2022/07/01 09:59:39;;;;;;;2.70;1.30;;;17.50;58.60;;;;;;5048449;28;46801;-60
2022/07/01 10:02:08;;;;;;;4.20;1.33;;;17.50;58.60;;;;;;5051367;28;47281;-60
2022/07/01 10:04:36;;;;;;;2.20;1.20;;;17.60;58.40;;;;;;5045318;28;46458;-60
2022/07/01 10:07:39;;;;;;;2.23;1.10;;;17.80;57.50;;;;;;5048643;28;46435;-61
2022/07/01 10:10:09;;;;;;;2.20;1.20;;;17.80;56.80;;;;;;5039039;28;47347;-61
2022/07/01 10:12:39;;;;;;;2.30;1.27;;;17.80;56.80;;;;;;5050507;28;46714;-60
2022/07/01 10:15:07;;;;;;;2.73;1.20;;;17.80;56.70;;;;;;5043046;28;46804;-60
2022/07/01 10:17:40;;;;;;;6.00;1.43;;;17.80;56.90;;;;;;5047497;28;46757;-61
2022/07/01 10:20:18;;;;;;;3.50;1.40;;;17.90;56.60;;;;;;5046480;28;46674;-60
2022/07/01 10:22:45;;;;;;;2.10;1.10;;;18.10;56.10;;;;;;5046563;28;48060;-60
2022/07/01 10:25:52;;;;;;;2.77;1.17;;;18.20;55.90;;;;;;5042018;28;46515;-62
2022/07/01 10:28:25;;;;;;;7.50;1.90;;;18.20;55.40;;;;;;5035610;28;46234;-61
2022/07/01 10:30:52;;;;;;;4.17;1.60;;;18.10;55.50;;;;;;5034079;28;46450;-60
2022/07/01 10:34:10;;;;;;;4.53;1.30;;;18.00;55.80;;;;;;5041107;28;46556;-61
2022/07/01 10:36:36;;;;;;;2.03;1.00;;;18.00;55.70;;;;;;5029024;28;46508;-59
2022/07/01 10:39:09;;;;;;;3.30;1.37;;;18.00;56.00;;;;;;5048235;28;46385;-62
2022/07/01 10:41:36;;;;;;;2.30;1.40;;;18.10;55.50;;;;;;5045820;28;46533;-64
2022/07/01 10:44:08;;;;;;;1.97;1.00;;;18.20;55.50;;;;;;5044937;28;47261;-63
2022/07/01 10:46:56;;;;;;;3.60;1.30;;;18.10;55.50;;;;;;5049534;28;46370;-62
2022/07/01 10:49:37;;;;;;;2.30;1.20;;;18.10;55.20;;;;;;5047582;28;46342;-62
2022/07/01 10:52:06;;;;;;;3.13;1.30;;;18.40;54.30;;;;;;5045430;28;46484;-62
2022/07/01 10:54:39;;;;;;;2.23;1.13;;;18.70;53.50;;;;;;5040430;28;48186;-62
2022/07/01 10:57:19;;;;;;;3.13;1.50;;;18.70;53.60;;;;;;5044930;28;45784;-61
2022/07/01 10:59:49;;;;;;;2.50;1.50;;;18.30;53.80;;;;;;5045945;28;46476;-60
2022/07/01 11:02:17;;;;;;;2.60;1.50;;;17.80;54.40;;;;;;5045415;28;46626;-61
2022/07/01 11:04:43;;;;;;;4.27;1.77;;;17.60;54.70;;;;;;5042629;28;46288;-61
2022/07/01 11:07:09;;;;;;;6.80;2.13;;;17.50;55.10;;;;;;5044656;28;46391;-61
2022/07/01 11:09:35;;;;;;;3.97;2.40;;;17.30;55.30;;;;;;5044926;28;46461;-62
2022/07/01 11:12:01;;;;;;;2.73;1.93;;;17.20;55.70;;;;;;5043264;28;46555;-61
2022/07/01 11:14:27;;;;;;;3.10;2.10;;;17.30;55.50;;;;;;5040623;28;47807;-61
2022/07/01 11:16:55;;;;;;;4.90;2.20;;;17.30;55.50;;;;;;5046895;28;45816;-61
2022/07/01 11:19:21;;;;;;;3.03;2.17;;;17.40;55.30;;;;;;5046044;28;46807;-60
2022/07/01 11:21:50;;;;;;;3.47;2.40;;;17.40;55.40;;;;;;5044797;28;46748;-61
2022/07/01 11:24:23;;;;;;;4.80;2.40;;;17.30;55.70;;;;;;5042042;28;46762;-60
2022/07/01 11:26:49;;;;;;;3.03;2.10;;;17.40;55.30;;;;;;5045664;28;46363;-61
2022/07/01 11:29:23;;;;;;;5.70;2.13;;;17.40;55.40;;;;;;5046983;28;46428;-61
2022/07/01 11:31:49;;;;;;;3.53;2.00;;;17.30;55.60;;;;;;5045212;28;46363;-61
2022/07/01 11:34:16;;;;;;;2.90;1.90;;;17.20;55.70;;;;;;5041277;28;48014;-62
2022/07/01 11:39:33;;;;;;;2.43;1.50;;;16.90;56.30;;;;;;5047287;28;46350;-61
2022/07/01 11:42:02;;;;;;;3.17;1.87;;;17.00;56.10;;;;;;5044250;28;45838;-60
2022/07/01 11:44:36;;;;;;;10.10;1.50;;;16.90;56.10;;;;;;5045805;28;46723;-61
2022/07/01 11:47:04;;;;;;;2.80;1.60;;;17.00;56.00;;;;;;5049603;28;46788;-61
2022/07/01 11:49:30;;;;;;;2.97;1.33;;;17.20;55.50;;;;;;5049127;28;46268;-60
2022/07/01 11:52:08;;;;;;;3.10;1.40;;;17.40;54.70;;;;;;5049075;28;46311;-61
2022/07/01 11:54:41;;;;;;;5.17;1.70;;;17.40;54.10;;;;;;5044394;28;46680;-61
2022/07/01 11:57:12;;;;;;;3.30;1.90;;;17.40;54.30;;;;;;5047851;28;46457;-61
2022/07/01 11:59:38;;;;;;;3.00;2.10;;;17.50;54.00;;;;;;5047321;28;46448;-60
2022/07/01 12:02:05;;;;;;;3.00;1.80;;;17.50;54.20;;;;;;5048613;28;46585;-60
2022/07/01 12:04:31;;;;;;;4.27;2.07;;;17.50;54.40;;;;;;5044751;28;46378;-61
2022/07/01 12:06:58;;;;;;;3.20;2.23;;;17.50;54.10;;;;;;5049044;28;45762;-60
2022/07/01 12:09:25;;;;;;;3.27;2.10;;;17.40;54.30;;;;;;5047905;28;46531;-60
2022/07/01 12:11:51;;;;;;;3.47;2.10;;;17.30;54.60;;;;;;5048690;28;46472;-60
2022/07/01 12:14:26;;;;;;;4.30;2.40;;;17.30;55.00;;;;;;5046550;28;46424;-61
2022/07/01 12:16:57;;;;;;;5.40;2.50;;;17.40;54.60;;;;;;5049980;28;46488;-61
2022/07/01 12:19:29;;;;;;;4.50;2.80;;;17.50;54.70;;;;;;5048603;28;46386;-61
2022/07/01 12:21:58;;;;;;;3.90;2.70;;;17.40;55.00;;;;;;5048299;28;46274;-62
2022/07/01 12:24:24;;;;;;;6.83;3.10;;;17.30;56.80;;;;;;5044320;28;47088;-61
2022/07/01 12:26:54;;;;;;;3.70;2.97;;;17.30;56.10;;;;;;5048551;28;46427;-62
2022/07/01 12:29:22;;;;;;;3.73;2.80;;;17.20;56.30;;;;;;5048224;28;46386;-61
2022/07/01 12:32:04;;;;;;;4.10;2.27;;;17.10;56.60;;;;;;5047553;28;46389;-62
2022/07/01 12:34:46;;;;;;;9.40;2.90;;;17.00;57.20;;;;;;5044819;28;47400;-61
2022/07/01 12:37:20;;;;;;;5.80;2.77;;;17.00;57.30;;;;;;5048526;28;46253;-62
2022/07/01 12:39:52;;;;;;;6.13;2.80;;;17.00;57.20;;;;;;5048141;28;46436;-61
2022/07/01 12:42:23;;;;;;;4.27;2.87;;;17.10;57.30;;;;;;5047460;28;46323;-62
2022/07/01 12:44:50;;;;;;;5.10;3.53;;;17.10;57.20;;;;;;5043113;28;46209;-61
2022/07/01 12:47:27;;;;;;;5.10;3.20;;;17.10;57.40;;;;;;5047964;28;46471;-61
2022/07/01 12:50:08;;;;;;;4.80;3.07;;;17.10;57.60;;;;;;5046425;28;46361;-60
2022/07/01 12:52:34;;;;;;;4.67;3.47;;;16.90;58.00;;;;;;5047708;28;46441;-60
2022/07/01 12:54:59;;;;;;;6.10;3.97;;;16.70;57.90;;;;;;5042446;28;47047;-60
2022/07/01 12:57:31;;;;;;;5.87;3.20;;;16.50;59.10;;;;;;5047345;28;46499;-60
2022/07/01 12:59:57;;;;;;;5.73;3.53;;;16.30;59.80;;;;;;5064197;28;46118;-61
2022/07/01 13:02:22;;;;;;;5.80;3.00;;;16.30;60.00;;;;;;5047779;28;46409;-60
2022/07/01 13:04:48;;;;;;;4.80;3.27;;;16.20;61.60;;;;;;5041998;28;46377;-61